Terminal Aerodrome Forecast
Issued by NWS

Home | Current Version | Previous Version | Text Only | Print | Product List | Glossary On
Versions: 1 2 3 4 5 6 7 8 9 10 11 12 13 14 15 16 17 18
000
FTUS43 KSGF 242100 AAA
TAFJLN
TAF AMD
KJLN 242136Z 2422/2518 29013G22KT 6SM -SHRA BR BKN025 OVC040
     FM250000 30012G21KT P6SM SCT030 BKN100
     FM250230 29008KT P6SM SKC=

USA.gov is the U.S. government's official web portal to all federal, state and local government web resources and services.